PWSweather.com
Personal Weather Stations
Station Observations
DW1039
Liberty & Fairfield Townships, Hamilton, OH 45011

Liberty & Fairfield TownshipsHamilton, OH 45011

Lat: 39.3933, Lon: -84.477

Elevation: 780

Station Type: Davis Vantage Pro2 (Daytime Fan Aspirated)

http://www.lfweathercenter.com/

High Low Average
Temperature 57.0°F13.9°C 36.3°F2.4°C 50.4°F10.2°C
Dew Point 52.9°F11.6°C 30.1°F-1.1°C 46.7°F8.2°C
Winds 30.0 mph 48.3 kmh 1.0 mph 1.6 kmh 10.0 mph SW16.1 kmh SW
Wind Gusts 37.0 mph59.5 kmh 9.0 mph14.5 kmh 20.0 mph32.2 kmh
Humidity 94% 76% 87%
Pressure 29.96 in1014.6 mb 29.64 in1003.7 mb -
Precipitation 0.00 in0.0 mm - -
Hour Temp Dew Point Humidity Winds Wind Gusts Pressure Precip Precip Rate Daily Precip Total
12:00 AM 52.1°F11.2°C 49.0°F9.4°C 89% 3.0 mph S4.8 kmh S 11.0 mph17.7 kmh 29.93 in1013.5 mb 0.00 in0.0 mm 0.00 in/hr0.0 mm/hr 0.00 in0.0 mm
12:10 AM 52.4°F11.3°C 49.0°F9.4°C 88% 5.0 mph S8.0 kmh S 13.0 mph20.9 kmh 29.92 in1013.2 mb 0.00 in0.0 mm 0.00 in/hr0.0 mm/hr 0.00 in0.0 mm
12:20 AM 52.8°F11.6°C 49.4°F9.7°C 88% 7.0 mph S11.3 kmh S 12.0 mph19.3 kmh 29.92 in1013.2 mb 0.00 in0.0 mm 0.00 in/hr0.0 mm/hr 0.00 in0.0 mm
12:30 AM 53.3°F11.8°C 49.5°F9.7°C 87% 10.0 mph S16.1 kmh S 17.0 mph27.4 kmh 29.91 in1012.9 mb 0.00 in0.0 mm 0.00 in/hr0.0 mm/hr 0.00 in0.0 mm
12:40 AM 53.3°F11.8°C 49.5°F9.7°C 87% 4.0 mph S6.4 kmh S 15.0 mph24.1 kmh 29.91 in1012.9 mb 0.01 in0.3 mm 0.06 in/hr1.5 mm/hr 0.01 in0.3 mm
12:50 AM 53.3°F11.8°C 49.5°F9.7°C 87% 8.0 mph SW12.9 kmh SW 13.0 mph20.9 kmh 29.90 in1012.5 mb 0.01 in0.3 mm 0.00 in/hr0.0 mm/hr 0.01 in0.3 mm
01:00 AM 53.4°F11.9°C 49.6°F9.8°C 87% 6.0 mph SSE9.7 kmh SSE 12.0 mph19.3 kmh 29.90 in1012.5 mb 0.01 in0.3 mm 0.00 in/hr0.0 mm/hr 0.01 in0.3 mm
01:10 AM 53.0°F11.7°C 49.6°F9.8°C 88% 4.0 mph S6.4 kmh S 13.0 mph20.9 kmh 29.89 in1012.2 mb 0.01 in0.3 mm 0.00 in/hr0.0 mm/hr 0.01 in0.3 mm
01:20 AM 53.1°F11.7°C 49.7°F9.8°C 88% 5.0 mph S8.0 kmh S 14.0 mph22.5 kmh 29.88 in1011.9 mb 0.01 in0.3 mm 0.00 in/hr0.0 mm/hr 0.01 in0.3 mm
01:30 AM 53.0°F11.7°C 49.6°F9.8°C 88% 6.0 mph SSE9.7 kmh SSE 15.0 mph24.1 kmh 29.88 in1011.9 mb 0.01 in0.3 mm 0.00 in/hr0.0 mm/hr 0.01 in0.3 mm
01:40 AM 53.2°F11.8°C 49.7°F9.8°C 88% 14.0 mph SW22.5 kmh SW 15.0 mph24.1 kmh 29.88 in1011.9 mb 0.03 in0.8 mm 0.12 in/hr3.0 mm/hr 0.03 in0.8 mm
01:50 AM 52.9°F11.6°C 49.8°F9.9°C 89% 9.0 mph SSW14.5 kmh SSW 13.0 mph20.9 kmh 29.88 in1011.9 mb 0.06 in1.5 mm 0.18 in/hr4.6 mm/hr 0.06 in1.5 mm
02:01 AM 52.8°F11.6°C 49.7°F9.8°C 89% 9.0 mph SSW14.5 kmh SSW 15.0 mph24.1 kmh 29.87 in1011.5 mb 0.06 in1.5 mm 0.00 in/hr0.0 mm/hr 0.06 in1.5 mm
02:10 AM 53.7°F12.1°C 50.2°F10.1°C 88% 16.0 mph S25.7 kmh S 21.0 mph33.8 kmh 29.87 in1011.5 mb 0.08 in2.0 mm 0.13 in/hr3.3 mm/hr 0.08 in2.0 mm
02:20 AM 53.2°F11.8°C 50.1°F10.1°C 89% 9.0 mph S14.5 kmh S 16.0 mph25.7 kmh 29.86 in1011.2 mb 0.10 in2.5 mm 0.12 in/hr3.0 mm/hr 0.10 in2.5 mm
02:30 AM 53.0°F11.7°C 49.9°F9.9°C 89% 6.0 mph S9.7 kmh S 16.0 mph25.7 kmh 29.85 in1010.8 mb 0.10 in2.5 mm 0.00 in/hr0.0 mm/hr 0.10 in2.5 mm
02:40 AM 53.1°F11.7°C 50.0°F10.0°C 89% 13.0 mph S20.9 kmh S 17.0 mph27.4 kmh 29.85 in1010.8 mb 0.07 in1.8 mm 0.00 in/hr0.0 mm/hr 0.10 in2.5 mm
02:50 AM 53.4°F11.9°C 49.9°F9.9°C 88% 9.0 mph SSW14.5 kmh SSW 17.0 mph27.4 kmh 29.86 in1011.2 mb 0.04 in1.0 mm 0.00 in/hr0.0 mm/hr 0.10 in2.5 mm
03:00 AM 53.8°F12.1°C 49.7°F9.8°C 86% 6.0 mph S9.7 kmh S 17.0 mph27.4 kmh 29.85 in1010.8 mb 0.04 in1.0 mm 0.00 in/hr0.0 mm/hr 0.10 in2.5 mm
03:10 AM 53.7°F12.1°C 49.6°F9.8°C 86% 5.0 mph SW8.0 kmh SW 16.0 mph25.7 kmh 29.84 in1010.5 mb 0.02 in0.5 mm 0.00 in/hr0.0 mm/hr 0.10 in2.5 mm
03:20 AM 53.8°F12.1°C 49.7°F9.8°C 86% 18.0 mph S29.0 kmh S 24.0 mph38.6 kmh 29.84 in1010.5 mb 0.00 in0.0 mm 0.00 in/hr0.0 mm/hr 0.10 in2.5 mm
03:30 AM 53.8°F12.1°C 49.7°F9.8°C 86% 10.0 mph SSW16.1 kmh SSW 23.0 mph37.0 kmh 29.84 in1010.5 mb 0.00 in0.0 mm 0.00 in/hr0.0 mm/hr 0.10 in2.5 mm
03:40 AM 53.6°F12.0°C 49.5°F9.7°C 86% 18.0 mph S29.0 kmh S 23.0 mph37.0 kmh 29.83 in1010.2 mb 0.00 in0.0 mm 0.00 in/hr0.0 mm/hr 0.10 in2.5 mm
03:50 AM 53.6°F12.0°C 49.5°F9.7°C 86% 17.0 mph SW27.4 kmh SW 24.0 mph38.6 kmh 29.83 in1010.2 mb 0.00 in0.0 mm 0.00 in/hr0.0 mm/hr 0.10 in2.5 mm
04:00 AM 53.2°F11.8°C 49.1°F9.5°C 86% 7.0 mph WSW11.3 kmh WSW 27.0 mph43.5 kmh 29.83 in1010.2 mb 0.01 in0.3 mm 0.01 in/hr0.3 mm/hr 0.11 in2.8 mm
04:10 AM 52.3°F11.3°C 49.2°F9.6°C 89% 12.0 mph SSW19.3 kmh SSW 19.0 mph30.6 kmh 29.83 in1010.2 mb 0.03 in0.8 mm 0.12 in/hr3.0 mm/hr 0.13 in3.3 mm
04:20 AM 51.7°F10.9°C 48.9°F9.4°C 90% 14.0 mph S22.5 kmh S 22.0 mph35.4 kmh 29.83 in1010.2 mb 0.07 in1.8 mm 0.24 in/hr6.1 mm/hr 0.17 in4.3 mm
04:30 AM 51.3°F10.7°C 48.8°F9.3°C 91% 11.0 mph SW17.7 kmh SW 21.0 mph33.8 kmh 29.82 in1009.8 mb 0.11 in2.8 mm 0.24 in/hr6.1 mm/hr 0.21 in5.3 mm
04:40 AM 51.6°F10.9°C 48.8°F9.3°C 90% 11.0 mph S17.7 kmh S 25.0 mph40.2 kmh 29.81 in1009.5 mb 0.13 in3.3 mm 0.12 in/hr3.0 mm/hr 0.23 in5.8 mm
04:50 AM 51.4°F10.8°C 48.6°F9.2°C 90% 11.0 mph SW17.7 kmh SW 19.0 mph30.6 kmh 29.80 in1009.1 mb 0.14 in3.6 mm 0.06 in/hr1.5 mm/hr 0.24 in6.1 mm
05:00 AM 51.2°F10.7°C 48.7°F9.3°C 91% 15.0 mph S24.1 kmh S 19.0 mph30.6 kmh 29.79 in1008.8 mb 0.13 in3.3 mm 0.00 in/hr0.0 mm/hr 0.24 in6.1 mm
05:10 AM 51.2°F10.7°C 48.7°F9.3°C 91% 7.0 mph S11.3 kmh S 21.0 mph33.8 kmh 29.78 in1008.5 mb 0.12 in3.0 mm 0.00 in/hr0.0 mm/hr 0.24 in6.1 mm
05:20 AM 51.4°F10.8°C 48.6°F9.2°C 90% 16.0 mph S25.7 kmh S 21.0 mph33.8 kmh 29.78 in1008.5 mb 0.08 in2.0 mm 0.00 in/hr0.0 mm/hr 0.24 in6.1 mm
05:30 AM 51.3°F10.7°C 48.8°F9.3°C 91% 14.0 mph SSW22.5 kmh SSW 14.0 mph22.5 kmh 29.78 in1008.5 mb 0.07 in1.8 mm 0.00 in/hr0.0 mm/hr 0.24 in6.1 mm
05:40 AM 51.2°F10.7°C 48.7°F9.3°C 91% 11.0 mph S17.7 kmh S 18.0 mph29.0 kmh 29.77 in1008.1 mb 0.04 in1.0 mm 0.00 in/hr0.0 mm/hr 0.24 in6.1 mm
05:50 AM 51.1°F10.6°C 48.6°F9.2°C 91% 4.0 mph SSE6.4 kmh SSE 15.0 mph24.1 kmh 29.76 in1007.8 mb 0.03 in0.8 mm 0.00 in/hr0.0 mm/hr 0.24 in6.1 mm
06:00 AM 51.7°F10.9°C 48.6°F9.2°C 89% 16.0 mph SSE25.7 kmh SSE 16.0 mph25.7 kmh 29.75 in1007.5 mb 0.03 in0.8 mm 0.00 in/hr0.0 mm/hr 0.24 in6.1 mm
06:10 AM 51.7°F10.9°C 48.3°F9.1°C 88% 18.0 mph S29.0 kmh S 21.0 mph33.8 kmh 29.74 in1007.1 mb 0.02 in0.5 mm 0.00 in/hr0.0 mm/hr 0.24 in6.1 mm
06:20 AM 51.6°F10.9°C 48.2°F9.0°C 88% 7.0 mph SSW11.3 kmh SSW 25.0 mph40.2 kmh 29.74 in1007.1 mb 0.02 in0.5 mm 0.00 in/hr0.0 mm/hr 0.24 in6.1 mm
06:30 AM 51.2°F10.7°C 47.8°F8.8°C 88% 15.0 mph SSE24.1 kmh SSE 22.0 mph35.4 kmh 29.73 in1006.8 mb 0.00 in0.0 mm 0.00 in/hr0.0 mm/hr 0.24 in6.1 mm
06:40 AM 51.2°F10.7°C 47.8°F8.8°C 88% 12.0 mph S19.3 kmh S 23.0 mph37.0 kmh 29.73 in1006.8 mb 0.00 in0.0 mm 0.00 in/hr0.0 mm/hr 0.24 in6.1 mm
06:50 AM 51.4°F10.8°C 48.0°F8.9°C 88% 10.0 mph S16.1 kmh S 22.0 mph35.4 kmh 29.72 in1006.4 mb 0.00 in0.0 mm 0.00 in/hr0.0 mm/hr 0.24 in6.1 mm
07:00 AM 51.6°F10.9°C 48.2°F9.0°C 88% 11.0 mph S17.7 kmh S 20.0 mph32.2 kmh 29.72 in1006.4 mb 0.00 in0.0 mm 0.00 in/hr0.0 mm/hr 0.24 in6.1 mm
07:10 AM 51.8°F11.0°C 48.4°F9.1°C 88% 9.0 mph S14.5 kmh S 27.0 mph43.5 kmh 29.71 in1006.1 mb 0.00 in0.0 mm 0.00 in/hr0.0 mm/hr 0.24 in6.1 mm
07:20 AM 52.2°F11.2°C 48.5°F9.2°C 87% 10.0 mph S16.1 kmh S 23.0 mph37.0 kmh 29.69 in1005.4 mb 0.00 in0.0 mm 0.00 in/hr0.0 mm/hr 0.24 in6.1 mm
07:30 AM 52.2°F11.2°C 48.5°F9.2°C 87% 11.0 mph SSE17.7 kmh SSE 20.0 mph32.2 kmh 29.70 in1005.8 mb 0.00 in0.0 mm 0.00 in/hr0.0 mm/hr 0.24 in6.1 mm
07:40 AM 52.4°F11.3°C 48.7°F9.3°C 87% 11.0 mph S17.7 kmh S 19.0 mph30.6 kmh 29.70 in1005.8 mb 0.00 in0.0 mm 0.00 in/hr0.0 mm/hr 0.24 in6.1 mm
07:50 AM 52.2°F11.2°C 49.1°F9.5°C 89% 11.0 mph SSW17.7 kmh SSW 19.0 mph30.6 kmh 29.71 in1006.1 mb 0.01 in0.3 mm 0.06 in/hr1.5 mm/hr 0.25 in6.4 mm
08:00 AM 52.8°F11.6°C 49.7°F9.8°C 89% 11.0 mph SSW17.7 kmh SSW 20.0 mph32.2 kmh 29.71 in1006.1 mb 0.02 in0.5 mm 0.01 in/hr0.3 mm/hr 0.26 in6.6 mm
08:10 AM 53.6°F12.0°C 50.7°F10.4°C 90% 12.0 mph WSW19.3 kmh WSW 20.0 mph32.2 kmh 29.74 in1007.1 mb 0.05 in1.3 mm 0.18 in/hr4.6 mm/hr 0.29 in7.4 mm
08:20 AM 53.1°F11.7°C 50.6°F10.3°C 91% 5.0 mph SW8.0 kmh SW 20.0 mph32.2 kmh 29.76 in1007.8 mb 0.09 in2.3 mm 0.24 in/hr6.1 mm/hr 0.33 in8.4 mm
08:30 AM 53.1°F11.7°C 50.8°F10.4°C 92% 5.0 mph WSW8.0 kmh WSW 15.0 mph24.1 kmh 29.75 in1007.5 mb 0.11 in2.8 mm 0.12 in/hr3.0 mm/hr 0.35 in8.9 mm
08:40 AM 53.1°F11.7°C 50.6°F10.3°C 91% 4.0 mph SW6.4 kmh SW 13.0 mph20.9 kmh 29.74 in1007.1 mb 0.13 in3.3 mm 0.12 in/hr3.0 mm/hr 0.37 in9.4 mm
08:50 AM 52.9°F11.6°C 50.6°F10.3°C 92% 5.0 mph SW8.0 kmh SW 10.0 mph16.1 kmh 29.74 in1007.1 mb 0.13 in3.3 mm 0.00 in/hr0.0 mm/hr 0.37 in9.4 mm
09:00 AM 52.4°F11.3°C 50.2°F10.1°C 92% 5.0 mph S8.0 kmh S 11.0 mph17.7 kmh 29.74 in1007.1 mb 0.15 in3.8 mm 0.02 in/hr0.5 mm/hr 0.39 in9.9 mm
09:10 AM 52.1°F11.2°C 49.9°F9.9°C 92% 5.0 mph SSW8.0 kmh SSW 14.0 mph22.5 kmh 29.73 in1006.8 mb 0.14 in3.6 mm 0.00 in/hr0.0 mm/hr 0.39 in9.9 mm
09:20 AM 51.6°F10.9°C 49.7°F9.8°C 93% 1.0 mph SW1.6 kmh SW 11.0 mph17.7 kmh 29.74 in1007.1 mb 0.11 in2.8 mm 0.00 in/hr0.0 mm/hr 0.39 in9.9 mm
09:30 AM 51.6°F10.9°C 49.7°F9.8°C 93% 3.0 mph S4.8 kmh S 9.0 mph14.5 kmh 29.73 in1006.8 mb 0.11 in2.8 mm 0.00 in/hr0.0 mm/hr 0.39 in9.9 mm
09:40 AM 51.7°F10.9°C 49.8°F9.9°C 93% 1.0 mph SW1.6 kmh SW 11.0 mph17.7 kmh 29.73 in1006.8 mb 0.12 in3.0 mm 0.06 in/hr1.5 mm/hr 0.40 in10.2 mm
09:50 AM 51.7°F10.9°C 49.8°F9.9°C 93% 4.0 mph S6.4 kmh S 10.0 mph16.1 kmh 29.70 in1005.8 mb 0.14 in3.6 mm 0.12 in/hr3.0 mm/hr 0.42 in10.7 mm
10:00 AM 51.9°F11.1°C 50.2°F10.1°C 94% 10.0 mph S16.1 kmh S 14.0 mph22.5 kmh 29.70 in1005.8 mb 0.14 in3.6 mm 0.00 in/hr0.0 mm/hr 0.42 in10.7 mm
10:10 AM 52.6°F11.4°C 50.9°F10.5°C 94% 4.0 mph S6.4 kmh S 9.0 mph14.5 kmh 29.69 in1005.4 mb 0.12 in3.0 mm 0.00 in/hr0.0 mm/hr 0.42 in10.7 mm
10:20 AM 52.8°F11.6°C 51.1°F10.6°C 94% 5.0 mph W8.0 kmh W 11.0 mph17.7 kmh 29.72 in1006.4 mb 0.11 in2.8 mm 0.00 in/hr0.0 mm/hr 0.42 in10.7 mm
10:30 AM 52.6°F11.4°C 50.9°F10.5°C 94% 9.0 mph NW14.5 kmh NW 14.0 mph22.5 kmh 29.74 in1007.1 mb 0.19 in4.8 mm 0.48 in/hr12.2 mm/hr 0.50 in12.7 mm
10:40 AM 51.5°F10.8°C 49.6°F9.8°C 93% 6.0 mph WSW9.7 kmh WSW 17.0 mph27.4 kmh 29.72 in1006.4 mb 0.28 in7.1 mm 0.54 in/hr13.7 mm/hr 0.59 in15.0 mm
10:50 AM 51.2°F10.7°C 49.3°F9.6°C 93% 4.0 mph WSW6.4 kmh WSW 12.0 mph19.3 kmh 29.73 in1006.8 mb 0.27 in6.9 mm 0.00 in/hr0.0 mm/hr 0.59 in15.0 mm
11:00 AM 51.2°F10.7°C 49.3°F9.6°C 93% 6.0 mph SW9.7 kmh SW 13.0 mph20.9 kmh 29.72 in1006.4 mb 0.27 in6.9 mm 0.00 in/hr0.0 mm/hr 0.59 in15.0 mm
11:10 AM 51.0°F10.6°C 49.1°F9.5°C 93% 7.0 mph SSW11.3 kmh SSW 13.0 mph20.9 kmh 29.72 in1006.4 mb 0.32 in8.1 mm 0.30 in/hr7.6 mm/hr 0.64 in16.3 mm
11:20 AM 50.5°F10.3°C 48.6°F9.2°C 93% 3.0 mph SSE4.8 kmh SSE 15.0 mph24.1 kmh 29.69 in1005.4 mb 0.35 in8.9 mm 0.18 in/hr4.6 mm/hr 0.67 in17.0 mm
11:30 AM 50.5°F10.3°C 48.6°F9.2°C 93% 5.0 mph SSE8.0 kmh SSE 15.0 mph24.1 kmh 29.67 in1004.7 mb 0.25 in6.4 mm 0.00 in/hr0.0 mm/hr 0.67 in17.0 mm
11:40 AM 50.7°F10.4°C 48.8°F9.3°C 93% 6.0 mph S9.7 kmh S 11.0 mph17.7 kmh 29.67 in1004.7 mb 0.13 in3.3 mm 0.00 in/hr0.0 mm/hr 0.67 in17.0 mm
11:50 AM 52.0°F11.1°C 50.0°F10.0°C 93% 9.0 mph SW14.5 kmh SW 17.0 mph27.4 kmh 29.66 in1004.4 mb 0.11 in2.8 mm 0.00 in/hr0.0 mm/hr 0.67 in17.0 mm
12:01 PM 52.9°F11.6°C 50.4°F10.2°C 91% 5.0 mph SW8.0 kmh SW 16.0 mph25.7 kmh 29.66 in1004.4 mb 0.08 in2.0 mm 0.00 in/hr0.0 mm/hr 0.67 in17.0 mm
12:10 PM 53.7°F12.1°C 50.8°F10.4°C 90% 9.0 mph SW14.5 kmh SW 22.0 mph35.4 kmh 29.66 in1004.4 mb 0.04 in1.0 mm 0.00 in/hr0.0 mm/hr 0.67 in17.0 mm
12:20 PM 54.0°F12.2°C 51.1°F10.6°C 90% 14.0 mph WSW22.5 kmh WSW 20.0 mph32.2 kmh 29.67 in1004.7 mb 0.01 in0.3 mm 0.00 in/hr0.0 mm/hr 0.67 in17.0 mm
12:30 PM 54.2°F12.3°C 51.3°F10.7°C 90% 13.0 mph WSW20.9 kmh WSW 21.0 mph33.8 kmh 29.66 in1004.4 mb 0.01 in0.3 mm 0.00 in/hr0.0 mm/hr 0.67 in17.0 mm
12:40 PM 54.4°F12.4°C 51.5°F10.8°C 90% 15.0 mph SW24.1 kmh SW 19.0 mph30.6 kmh 29.67 in1004.7 mb 0.01 in0.3 mm 0.00 in/hr0.0 mm/hr 0.67 in17.0 mm
12:50 PM 54.7°F12.6°C 51.8°F11.0°C 90% 7.0 mph SW11.3 kmh SW 13.0 mph20.9 kmh 29.67 in1004.7 mb 0.01 in0.3 mm 0.00 in/hr0.0 mm/hr 0.67 in17.0 mm
01:00 PM 54.7°F12.6°C 51.8°F11.0°C 90% 4.0 mph SW6.4 kmh SW 14.0 mph22.5 kmh 29.66 in1004.4 mb 0.00 in0.0 mm 0.00 in/hr0.0 mm/hr 0.67 in17.0 mm
01:10 PM 55.4°F13.0°C 52.2°F11.2°C 89% 9.0 mph WSW14.5 kmh WSW 15.0 mph24.1 kmh 29.66 in1004.4 mb 0.00 in0.0 mm 0.00 in/hr0.0 mm/hr 0.67 in17.0 mm
01:20 PM 56.3°F13.5°C 52.8°F11.6°C 88% 5.0 mph SW8.0 kmh SW 16.0 mph25.7 kmh 29.66 in1004.4 mb 0.00 in0.0 mm 0.00 in/hr0.0 mm/hr 0.67 in17.0 mm
01:30 PM 57.0°F13.9°C 52.9°F11.6°C 86% 16.0 mph WSW25.7 kmh WSW 17.0 mph27.4 kmh 29.65 in1004.1 mb 0.00 in0.0 mm 0.00 in/hr0.0 mm/hr 0.67 in17.0 mm
01:40 PM 56.9°F13.8°C 52.1°F11.2°C 84% 9.0 mph SSW14.5 kmh SSW 19.0 mph30.6 kmh 29.64 in1003.7 mb 0.00 in0.0 mm 0.00 in/hr0.0 mm/hr 0.67 in17.0 mm
01:50 PM 56.7°F13.7°C 51.3°F10.7°C 82% 11.0 mph WSW17.7 kmh WSW 23.0 mph37.0 kmh 29.64 in1003.7 mb 0.00 in0.0 mm 0.00 in/hr0.0 mm/hr 0.67 in17.0 mm
02:00 PM 56.3°F13.5°C 50.9°F10.5°C 82% 11.0 mph WSW17.7 kmh WSW 24.0 mph38.6 kmh 29.65 in1004.1 mb 0.00 in0.0 mm 0.00 in/hr0.0 mm/hr 0.67 in17.0 mm
02:10 PM 56.2°F13.4°C 50.8°F10.4°C 82% 11.0 mph SW17.7 kmh SW 30.0 mph48.3 kmh 29.65 in1004.1 mb 0.00 in0.0 mm 0.00 in/hr0.0 mm/hr 0.67 in17.0 mm
02:20 PM 55.8°F13.2°C 49.1°F9.5°C 78% 27.0 mph W43.5 kmh W 28.0 mph45.1 kmh 29.67 in1004.7 mb 0.00 in0.0 mm 0.00 in/hr0.0 mm/hr 0.67 in17.0 mm
02:30 PM 54.1°F12.3°C 47.4°F8.6°C 78% 23.0 mph W37.0 kmh W 37.0 mph59.5 kmh 29.68 in1005.1 mb 0.00 in0.0 mm 0.00 in/hr0.0 mm/hr 0.67 in17.0 mm
02:40 PM 51.5°F10.8°C 45.2°F7.3°C 79% 13.0 mph WNW20.9 kmh WNW 29.0 mph46.7 kmh 29.71 in1006.1 mb 0.00 in0.0 mm 0.00 in/hr0.0 mm/hr 0.67 in17.0 mm
02:50 PM 48.2°F9.0°C 42.3°F5.7°C 80% 30.0 mph NW48.3 kmh NW 34.0 mph54.7 kmh 29.72 in1006.4 mb 0.00 in0.0 mm 0.00 in/hr0.0 mm/hr 0.67 in17.0 mm
03:00 PM 46.1°F7.8°C 40.3°F4.6°C 80% 23.0 mph WNW37.0 kmh WNW 36.0 mph57.9 kmh 29.75 in1007.5 mb 0.00 in0.0 mm 0.00 in/hr0.0 mm/hr 0.67 in17.0 mm
03:10 PM 46.0°F7.8°C 39.9°F4.4°C 79% 18.0 mph W29.0 kmh W 26.0 mph41.8 kmh 29.76 in1007.8 mb 0.00 in0.0 mm 0.00 in/hr0.0 mm/hr 0.67 in17.0 mm
03:20 PM 46.0°F7.8°C 38.9°F3.8°C 76% 21.0 mph W33.8 kmh W 33.0 mph53.1 kmh 29.78 in1008.5 mb 0.00 in0.0 mm 0.00 in/hr0.0 mm/hr 0.67 in17.0 mm
03:30 PM 45.9°F7.7°C 39.1°F3.9°C 77% 17.0 mph W27.4 kmh W 34.0 mph54.7 kmh 29.79 in1008.8 mb 0.00 in0.0 mm 0.00 in/hr0.0 mm/hr 0.67 in17.0 mm
03:40 PM 45.2°F7.3°C 38.1°F3.4°C 76% 18.0 mph W29.0 kmh W 29.0 mph46.7 kmh 29.80 in1009.1 mb 0.00 in0.0 mm 0.00 in/hr0.0 mm/hr 0.67 in17.0 mm
03:50 PM 44.4°F6.9°C 37.7°F3.2°C 77% 14.0 mph W22.5 kmh W 30.0 mph48.3 kmh 29.81 in1009.5 mb 0.00 in0.0 mm 0.00 in/hr0.0 mm/hr 0.67 in17.0 mm
04:01 PM 43.2°F6.2°C 36.5°F2.5°C 77% 10.0 mph WNW16.1 kmh WNW 29.0 mph46.7 kmh 29.83 in1010.2 mb 0.00 in0.0 mm 0.00 in/hr0.0 mm/hr 0.67 in17.0 mm
04:10 PM 42.7°F5.9°C 36.7°F2.6°C 79% 12.0 mph W19.3 kmh W 27.0 mph43.5 kmh 29.84 in1010.5 mb 0.00 in0.0 mm 0.00 in/hr0.0 mm/hr 0.67 in17.0 mm
04:20 PM 41.9°F5.5°C 36.5°F2.5°C 81% 11.0 mph WSW17.7 kmh WSW 28.0 mph45.1 kmh 29.85 in1010.8 mb 0.00 in0.0 mm 0.00 in/hr0.0 mm/hr 0.67 in17.0 mm
04:30 PM 41.2°F5.1°C 35.2°F1.8°C 79% 18.0 mph W29.0 kmh W 33.0 mph53.1 kmh 29.86 in1011.2 mb 0.00 in0.0 mm 0.00 in/hr0.0 mm/hr 0.67 in17.0 mm
04:40 PM 40.6°F4.8°C 35.2°F1.8°C 81% 6.0 mph WNW9.7 kmh WNW 23.0 mph37.0 kmh 29.87 in1011.5 mb 0.00 in0.0 mm 0.00 in/hr0.0 mm/hr 0.67 in17.0 mm
04:50 PM 40.0°F4.4°C 35.0°F1.7°C 82% 16.0 mph W25.7 kmh W 23.0 mph37.0 kmh 29.89 in1012.2 mb 0.00 in0.0 mm 0.00 in/hr0.0 mm/hr 0.67 in17.0 mm
05:00 PM 38.9°F3.8°C 34.5°F1.4°C 84% 10.0 mph W16.1 kmh W 22.0 mph35.4 kmh 29.90 in1012.5 mb 0.00 in0.0 mm 0.00 in/hr0.0 mm/hr 0.67 in17.0 mm
05:10 PM 38.6°F3.7°C 34.5°F1.4°C 85% 11.0 mph WNW17.7 kmh WNW 27.0 mph43.5 kmh 29.91 in1012.9 mb 0.00 in0.0 mm 0.00 in/hr0.0 mm/hr 0.67 in17.0 mm
05:20 PM 38.2°F3.4°C 32.9°F0.5°C 81% 15.0 mph SW24.1 kmh SW 23.0 mph37.0 kmh 29.92 in1013.2 mb 0.00 in0.0 mm 0.00 in/hr0.0 mm/hr 0.67 in17.0 mm
05:30 PM 37.9°F3.3°C 32.3°F0.2°C 80% 15.0 mph W24.1 kmh W 25.0 mph40.2 kmh 29.92 in1013.2 mb 0.00 in0.0 mm 0.00 in/hr0.0 mm/hr 0.67 in17.0 mm
05:40 PM 37.5°F3.1°C 31.0°F-0.6°C 77% 7.0 mph WNW11.3 kmh WNW 24.0 mph38.6 kmh 29.93 in1013.5 mb 0.00 in0.0 mm 0.00 in/hr0.0 mm/hr 0.67 in17.0 mm
05:50 PM 37.2°F2.9°C 30.7°F-0.7°C 77% 13.0 mph WNW20.9 kmh WNW 22.0 mph35.4 kmh 29.93 in1013.5 mb 0.00 in0.0 mm 0.00 in/hr0.0 mm/hr 0.67 in17.0 mm
06:01 PM 37.1°F2.8°C 30.9°F-0.6°C 78% 10.0 mph W16.1 kmh W 24.0 mph38.6 kmh 29.94 in1013.9 mb 0.00 in0.0 mm 0.00 in/hr0.0 mm/hr 0.67 in17.0 mm
06:10 PM 36.8°F2.7°C 30.6°F-0.8°C 78% 13.0 mph W20.9 kmh W 23.0 mph37.0 kmh 29.95 in1014.2 mb 0.00 in0.0 mm 0.00 in/hr0.0 mm/hr 0.67 in17.0 mm
06:20 PM 36.6°F2.6°C 30.7°F-0.7°C 79% 9.0 mph WSW14.5 kmh WSW 19.0 mph30.6 kmh 29.95 in1014.2 mb 0.00 in0.0 mm 0.00 in/hr0.0 mm/hr 0.67 in17.0 mm
06:30 PM 36.3°F2.4°C 30.1°F-1.1°C 78% 10.0 mph WNW16.1 kmh WNW 16.0 mph25.7 kmh 29.96 in1014.6 mb 0.00 in0.0 mm 0.00 in/hr0.0 mm/hr 0.67 in17.0 mm
06:40 PM 36.1°F2.3°C 29.6°F-1.3°C 77% 14.0 mph WNW22.5 kmh WNW 22.0 mph35.4 kmh 29.97 in1014.9 mb 0.00 in0.0 mm 0.00 in/hr0.0 mm/hr 0.67 in17.0 mm
06:50 PM 36.0°F2.2°C 29.5°F-1.4°C 77% 11.0 mph WNW17.7 kmh WNW 20.0 mph32.2 kmh 29.98 in1015.2 mb 0.00 in0.0 mm 0.00 in/hr0.0 mm/hr 0.67 in17.0 mm
07:00 PM 35.9°F2.2°C 30.0°F-1.1°C 79% 4.0 mph SW6.4 kmh SW 18.0 mph29.0 kmh 29.99 in1015.6 mb 0.00 in0.0 mm 0.00 in/hr0.0 mm/hr 0.67 in17.0 mm
07:10 PM 35.8°F2.1°C 30.3°F-0.9°C 80% 5.0 mph WNW8.0 kmh WNW 15.0 mph24.1 kmh 30.00 in1015.9 mb 0.00 in0.0 mm 0.00 in/hr0.0 mm/hr 0.67 in17.0 mm
07:20 PM 35.6°F2.0°C 29.4°F-1.4°C 78% 14.0 mph W22.5 kmh W 19.0 mph30.6 kmh 30.00 in1015.9 mb 0.00 in0.0 mm 0.00 in/hr0.0 mm/hr 0.67 in17.0 mm
07:30 PM 35.2°F1.8°C 28.7°F-1.8°C 77% 7.0 mph W11.3 kmh W 19.0 mph30.6 kmh 30.01 in1016.3 mb 0.00 in0.0 mm 0.00 in/hr0.0 mm/hr 0.67 in17.0 mm
07:40 PM 35.1°F1.7°C 28.9°F-1.7°C 78% 9.0 mph W14.5 kmh W 18.0 mph29.0 kmh 30.02 in1016.6 mb 0.00 in0.0 mm 0.00 in/hr0.0 mm/hr 0.67 in17.0 mm
07:50 PM 34.9°F1.6°C 28.8°F-1.8°C 78% 11.0 mph WSW17.7 kmh WSW 20.0 mph32.2 kmh 30.03 in1016.9 mb 0.00 in0.0 mm 0.00 in/hr0.0 mm/hr 0.67 in17.0 mm
08:00 PM 34.4°F1.3°C 28.3°F-2.1°C 78% 7.0 mph W11.3 kmh W 28.0 mph45.1 kmh 30.04 in1017.3 mb 0.00 in0.0 mm 0.00 in/hr0.0 mm/hr 0.67 in17.0 mm
08:10 PM 34.0°F1.1°C 27.9°F-2.3°C 78% 14.0 mph W22.5 kmh W 20.0 mph32.2 kmh 30.04 in1017.3 mb 0.00 in0.0 mm 0.00 in/hr0.0 mm/hr 0.67 in17.0 mm
08:20 PM 33.8°F1.0°C 27.4°F-2.6°C 77% 21.0 mph W33.8 kmh W 24.0 mph38.6 kmh 30.05 in1017.6 mb 0.00 in0.0 mm 0.00 in/hr0.0 mm/hr 0.67 in17.0 mm
08:30 PM 33.6°F0.9°C 27.5°F-2.5°C 78% 16.0 mph W25.7 kmh W 22.0 mph35.4 kmh 30.06 in1017.9 mb 0.00 in0.0 mm 0.00 in/hr0.0 mm/hr 0.67 in17.0 mm
08:40 PM 33.4°F0.8°C 27.6°F-2.4°C 79% 13.0 mph W20.9 kmh W 19.0 mph30.6 kmh 30.06 in1017.9 mb 0.00 in0.0 mm 0.00 in/hr0.0 mm/hr 0.67 in17.0 mm
08:50 PM 33.3°F0.7°C 27.8°F-2.3°C 80% 10.0 mph W16.1 kmh W 20.0 mph32.2 kmh 30.07 in1018.3 mb 0.00 in0.0 mm 0.00 in/hr0.0 mm/hr 0.67 in17.0 mm
09:00 PM 33.2°F0.7°C 28.0°F-2.2°C 81% 5.0 mph WSW8.0 kmh WSW 15.0 mph24.1 kmh 30.07 in1018.3 mb 0.00 in0.0 mm 0.00 in/hr0.0 mm/hr 0.67 in17.0 mm
09:10 PM 33.1°F0.6°C 27.9°F-2.3°C 81% 10.0 mph NW16.1 kmh NW 14.0 mph22.5 kmh 30.08 in1018.6 mb 0.00 in0.0 mm 0.00 in/hr0.0 mm/hr 0.67 in17.0 mm
09:20 PM 32.8°F0.4°C 27.3°F-2.6°C 80% 7.0 mph WSW11.3 kmh WSW 21.0 mph33.8 kmh 30.08 in1018.6 mb 0.00 in0.0 mm 0.00 in/hr0.0 mm/hr 0.67 in17.0 mm
09:30 PM 32.7°F0.4°C 26.9°F-2.8°C 79% 3.0 mph NW4.8 kmh NW 15.0 mph24.1 kmh 30.09 in1019.0 mb 0.00 in0.0 mm 0.00 in/hr0.0 mm/hr 0.67 in17.0 mm
09:40 PM 32.7°F0.4°C 26.9°F-2.8°C 79% 1.0 mph NW1.6 kmh NW 13.0 mph20.9 kmh 30.09 in1019.0 mb 0.00 in0.0 mm 0.00 in/hr0.0 mm/hr 0.67 in17.0 mm
09:50 PM 32.6°F0.3°C 27.1°F-2.7°C 80% 6.0 mph NW9.7 kmh NW 16.0 mph25.7 kmh 30.10 in1019.3 mb 0.00 in0.0 mm 0.00 in/hr0.0 mm/hr 0.67 in17.0 mm
10:01 PM 32.4°F0.2°C 27.5°F-2.5°C 82% 9.0 mph WNW14.5 kmh WNW 15.0 mph24.1 kmh 30.10 in1019.3 mb 0.00 in0.0 mm 0.00 in/hr0.0 mm/hr 0.67 in17.0 mm
10:10 PM 32.2°F0.1°C 27.6°F-2.4°C 83% 6.0 mph W9.7 kmh W 12.0 mph19.3 kmh 30.10 in1019.3 mb 0.00 in0.0 mm 0.00 in/hr0.0 mm/hr 0.67 in17.0 mm
10:20 PM 32.0°F0.0°C 28.3°F-2.1°C 86% 3.0 mph W4.8 kmh W 11.0 mph17.7 kmh 30.11 in1019.6 mb 0.00 in0.0 mm 0.00 in/hr0.0 mm/hr 0.67 in17.0 mm
10:30 PM 31.8°F-0.1°C 28.4°F-2.0°C 87% 9.0 mph W14.5 kmh W 16.0 mph25.7 kmh 30.12 in1020.0 mb 0.00 in0.0 mm 0.00 in/hr0.0 mm/hr 0.67 in17.0 mm
10:40 PM 31.7°F-0.2°C 28.3°F-2.1°C 87% 11.0 mph W17.7 kmh W 14.0 mph22.5 kmh 30.12 in1020.0 mb 0.00 in0.0 mm 0.00 in/hr0.0 mm/hr 0.67 in17.0 mm
10:50 PM 31.9°F-0.1°C 27.9°F-2.3°C 85% 5.0 mph WSW8.0 kmh WSW 16.0 mph25.7 kmh 30.13 in1020.3 mb 0.00 in0.0 mm 0.00 in/hr0.0 mm/hr 0.67 in17.0 mm
11:00 PM 31.9°F-0.1°C 27.3°F-2.6°C 83% 5.0 mph W8.0 kmh W 17.0 mph27.4 kmh 30.13 in1020.3 mb 0.00 in0.0 mm 0.00 in/hr0.0 mm/hr 0.67 in17.0 mm
11:10 PM 31.7°F-0.2°C 26.8°F-2.9°C 82% 5.0 mph WNW8.0 kmh WNW 13.0 mph20.9 kmh 30.13 in1020.3 mb 0.00 in0.0 mm 0.00 in/hr0.0 mm/hr 0.67 in17.0 mm
11:20 PM 31.5°F-0.3°C 26.4°F-3.1°C 81% 12.0 mph WNW19.3 kmh WNW 16.0 mph25.7 kmh 30.14 in1020.7 mb 0.00 in0.0 mm 0.00 in/hr0.0 mm/hr 0.67 in17.0 mm
11:30 PM 31.2°F-0.4°C 25.8°F-3.4°C 80% 10.0 mph WNW16.1 kmh WNW 15.0 mph24.1 kmh 30.15 in1021.0 mb 0.00 in0.0 mm 0.00 in/hr0.0 mm/hr 0.67 in17.0 mm
11:40 PM 31.0°F-0.6°C 25.3°F-3.7°C 79% 7.0 mph NW11.3 kmh NW 18.0 mph29.0 kmh 30.15 in1021.0 mb 0.00 in0.0 mm 0.00 in/hr0.0 mm/hr 0.67 in17.0 mm
11:50 PM 30.9°F-0.6°C 25.2°F-3.8°C 79% 3.0 mph WNW4.8 kmh WNW 11.0 mph17.7 kmh 30.16 in1021.3 mb 0.00 in0.0 mm 0.00 in/hr0.0 mm/hr 0.67 in17.0 mm